Time;durP1;ratioP1;P1;durP2;ratioP2;P2;SDS_P1;SDS_P2;PMS_P1;PMS_P2;Temp;Humidity;BMP_temperature;BMP_pressure;BME280_temperature;BME280_humidity;BME280_pressure;Samples;Min_cycle;Max_cycle;Signal;HPM_P1;HPM_P2
2022/12/27 00:00:30;;;;;;;;;;;;;;;6.57;60.95;101236.81;4169898;28;19999;-54
2022/12/27 00:02:33;;;;;;;;;;;;;;;6.54;61.17;101232.56;4170041;28;20011;-56
2022/12/27 00:04:36;;;;;;;;;;;;;;;6.54;61.46;101239.78;4168876;28;19978;-58
2022/12/27 00:06:38;;;;;;;;;;;;;;;6.52;61.73;101236.34;4169710;28;20466;-54
2022/12/27 00:08:40;;;;;;;;;;;;;;;6.52;61.59;101250.66;4170049;28;20019;-58
2022/12/27 00:10:42;;;;;;;;;;;;;;;6.52;62.02;101242.59;4169924;28;20015;-56
2022/12/27 00:12:44;;;;;;;;;;;;;;;6.53;61.73;101243.44;4170764;28;20019;-58
2022/12/27 00:14:46;;;;;;;;;;;;;;;6.54;61.85;101245.13;4167652;28;20438;-55
2022/12/27 00:16:48;;;;;;;;;;;;;;;6.52;61.53;101252.47;4170088;28;20016;-57
2022/12/27 00:18:52;;;;;;;;;;;;;;;6.48;62.01;101255.41;4170979;28;20011;-57
2022/12/27 00:20:56;;;;;;;;;;;;;;;6.47;62.08;101268.97;4168366;28;20012;-58
2022/12/27 00:22:59;;;;;;;;;;;;;;;6.46;62.16;101276.19;4170404;28;20450;-59
2022/12/27 00:25:01;;;;;;;;;;;;;;;6.46;62.01;101278.88;4169815;28;20235;-58
2022/12/27 00:27:03;;;;;;;;;;;;;;;6.47;62.34;101279.72;4171650;28;20023;-56
2022/12/27 00:29:05;;;;;;;;;;;;;;;6.47;62.63;101277.91;4169966;28;20031;-60
2022/12/27 00:31:07;;;;;;;;;;;;;;;6.48;62.51;101282.25;4170344;28;20016;-59
2022/12/27 00:33:09;;;;;;;;;;;;;;;6.40;62.21;101281.25;4170310;28;20012;-60
2022/12/27 00:35:13;;;;;;;;;;;;;;;6.34;62.36;101292.53;4169515;28;20019;-58
2022/12/27 00:37:15;;;;;;;;;;;;;;;6.34;62.88;101284.47;4169783;28;20012;-56
2022/12/27 00:39:17;;;;;;;;;;;;;;;6.32;62.92;101284.63;4169183;28;20016;-57
2022/12/27 00:41:20;;;;;;;;;;;;;;;6.27;62.46;101301.13;4170445;28;20023;-61
2022/12/27 00:43:22;;;;;;;;;;;;;;;6.21;62.70;101295.47;4170630;28;20442;-59
2022/12/27 00:45:24;;;;;;;;;;;;;;;6.19;62.65;101300.09;4168380;28;19921;-59
2022/12/27 00:47:26;;;;;;;;;;;;;;;6.18;63.01;101295.72;4170196;28;20051;-58
2022/12/27 00:49:28;;;;;;;;;;;;;;;6.16;63.03;101290.50;4169434;28;20035;-61
2022/12/27 00:51:31;;;;;;;;;;;;;;;6.20;63.13;101291.06;4168992;28;20029;-60
2022/12/27 00:53:33;;;;;;;;;;;;;;;6.20;63.07;101293.75;4170189;28;20012;-60
2022/12/27 00:55:35;;;;;;;;;;;;;;;6.19;63.15;101302.75;4169246;28;20379;-57
2022/12/27 00:57:37;;;;;;;;;;;;;;;6.15;62.56;101298.66;4169173;28;20369;-59
2022/12/27 00:59:39;;;;;;;;;;;;;;;6.09;62.70;101305.41;4170443;28;20442;-58
2022/12/27 01:01:41;;;;;;;;;;;;;;;6.02;62.75;101297.06;4172482;28;20025;-59
2022/12/27 01:03:43;;;;;;;;;;;;;;;6.02;63.12;101310.47;4172837;28;20344;-61
2022/12/27 01:05:45;;;;;;;;;;;;;;;5.98;62.98;101309.03;4172119;28;20414;-60
2022/12/27 01:07:49;;;;;;;;;;;;;;;5.94;63.14;101316.47;4172560;28;20012;-59
2022/12/27 01:09:51;;;;;;;;;;;;;;;5.87;63.46;101323.31;4172149;28;20027;-59
2022/12/27 01:11:53;;;;;;;;;;;;;;;5.84;63.83;101325.44;4172681;28;20020;-60
2022/12/27 01:13:55;;;;;;;;;;;;;;;5.78;63.79;101329.47;4172641;28;20502;-59
2022/12/27 01:15:57;;;;;;;;;;;;;;;5.72;64.26;101336.22;4171768;28;20023;-57
2022/12/27 01:17:59;;;;;;;;;;;;;;;5.68;64.68;101334.78;4172387;28;20607;-58
2022/12/27 01:20:01;;;;;;;;;;;;;;;5.65;64.81;101336.88;4178557;28;19959;-57
2022/12/27 01:22:03;;;;;;;;;;;;;;;5.54;65.12;101343.97;4171930;28;20019;-60
2022/12/27 01:24:06;;;;;;;;;;;;;;;5.51;65.57;101348.75;4172123;28;20011;-54
2022/12/27 01:26:10;;;;;;;;;;;;;;;5.45;65.43;101351.94;4172094;28;19921;-58
2022/12/27 01:28:12;;;;;;;;;;;;;;;5.41;66.04;101359.41;4187155;28;20007;-58
2022/12/27 01:30:14;;;;;;;;;;;;;;;5.38;65.91;101365.84;4172901;28;20008;-61
2022/12/27 01:32:16;;;;;;;;;;;;;;;5.34;66.46;101364.41;4172080;28;20016;-60
2022/12/27 01:34:18;;;;;;;;;;;;;;;5.26;66.40;101356.16;4171638;28;20100;-58
2022/12/27 01:36:21;;;;;;;;;;;;;;;5.26;66.88;101358.84;4171379;28;20015;-59
2022/12/27 01:38:23;;;;;;;;;;;;;;;5.26;66.88;101366.03;4174582;28;20011;-59
2022/12/27 01:40:26;;;;;;;;;;;;;;;5.24;67.05;101363.47;4172575;28;20016;-59
2022/12/27 01:44:52;;;;;;;;;;;;;;;5.14;67.45;101363.38;4172012;28;20031;-59
2022/12/27 01:46:54;;;;;;;;;;;;;;;5.11;67.51;101360.97;4172491;28;20405;-57
2022/12/27 01:48:55;;;;;;;;;;;;;;;5.10;67.83;101356.56;4171862;28;20005;-59
2022/12/27 01:50:58;;;;;;;;;;;;;;;5.09;67.84;101362.06;4171214;28;20008;-56
2022/12/27 01:53:02;;;;;;;;;;;;;;;5.05;68.14;101361.47;4172089;28;20011;-57
2022/12/27 01:55:06;;;;;;;;;;;;;;;5.01;68.05;101358.16;4171013;28;20012;-60
2022/12/27 01:57:10;;;;;;;;;;;;;;;4.96;68.30;101363.06;4172270;28;20017;-59
2022/12/27 01:59:12;;;;;;;;;;;;;;;4.96;68.44;101359.53;4172761;28;20015;-57
2022/12/27 02:01:15;;;;;;;;;;;;;;;4.93;68.61;101371.34;4170633;28;20706;-57
2022/12/27 02:03:18;;;;;;;;;;;;;;;4.90;68.54;101366.22;4172420;28;20016;-60
2022/12/27 02:05:20;;;;;;;;;;;;;;;4.89;68.78;101372.59;4171181;28;20012;-56
2022/12/27 02:07:23;;;;;;;;;;;;;;;4.81;68.84;101366.97;4170547;28;20351;-57
2022/12/27 02:09:26;;;;;;;;;;;;;;;4.78;69.17;101386.81;4171082;28;20009;-58
2022/12/27 02:13:46;;;;;;;;;;;;;;;4.70;69.39;101373.19;4171642;28;20021;-59
2022/12/27 02:15:48;;;;;;;;;;;;;;;4.68;69.77;101384.00;4170707;28;20098;-56
2022/12/27 02:17:50;;;;;;;;;;;;;;;4.67;69.65;101381.47;4170699;28;20461;-58
2022/12/27 02:19:54;;;;;;;;;;;;;;;4.61;69.90;101384.66;4170905;28;20012;-57
2022/12/27 02:22:10;;;;;;;;;;;;;;;4.59;70.08;101382.09;4171781;28;20008;-59
2022/12/27 02:24:26;;;;;;;;;;;;;;;4.60;70.09;101385.63;4171643;28;20024;-59
2022/12/27 02:26:31;;;;;;;;;;;;;;;4.60;69.91;101391.81;4173359;28;20019;-59
2022/12/27 02:28:44;;;;;;;;;;;;;;;4.60;69.98;101396.31;4172955;28;19960;-59
2022/12/27 02:30:46;;;;;;;;;;;;;;;4.59;70.07;101394.59;4171482;28;20012;-58
2022/12/27 02:32:49;;;;;;;;;;;;;;;4.55;69.86;101396.69;4171913;28;19999;-57
2022/12/27 02:35:01;;;;;;;;;;;;;;;4.51;70.35;101405.91;4168120;28;20016;-54
2022/12/27 02:37:04;;;;;;;;;;;;;;;4.47;70.39;101399.13;4170867;28;20023;-59
2022/12/27 02:39:06;;;;;;;;;;;;;;;4.43;70.34;101398.50;4170891;28;20561;-56
2022/12/27 02:53:06;;;;;;;;;;;;;;;4.24;71.22;101415.13;4171679;28;20012;-56
2022/12/27 02:55:15;;;;;;;;;;;;;;;4.23;71.24;101412.56;4177601;28;19952;-56
2022/12/27 02:57:18;;;;;;;;;;;;;;;4.25;71.05;101424.88;4171190;28;20395;-54
2022/12/27 02:59:23;;;;;;;;;;;;;;;4.26;71.08;101426.59;4171096;28;20335;-56
2022/12/27 03:03:51;;;;;;;;;;;;;;;4.22;71.21;101435.81;4171158;28;20430;-57
2022/12/27 03:08:27;;;;;;;;;;;;;;;4.15;71.74;101443.44;4159502;28;20359;-56
2022/12/27 03:17:40;;;;;;;;;;;;;;;4.13;71.60;101450.72;4170989;28;20013;-58
2022/12/27 03:26:43;;;;;;;;;;;;;;;4.17;71.65;101464.72;4170898;28;20016;-55
2022/12/27 03:33:26;;;;;;;;;;;;;;;4.15;71.52;101472.00;4171454;28;20015;-59
2022/12/27 03:35:28;;;;;;;;;;;;;;;4.12;71.92;101481.13;4170409;28;20020;-58
2022/12/27 03:39:51;;;;;;;;;;;;;;;4.09;71.78;101477.78;4170897;28;20028;-59
2022/12/27 03:44:23;;;;;;;;;;;;;;;4.03;72.11;101484.47;4148785;28;20027;-58
2022/12/27 03:46:32;;;;;;;;;;;;;;;4.05;72.18;101489.72;4169362;28;21845;-57
2022/12/27 03:48:37;;;;;;;;;;;;;;;4.02;72.32;101485.44;4171605;28;20024;-58
2022/12/27 03:50:39;;;;;;;;;;;;;;;4.00;72.28;101490.06;4169387;28;20024;-59
2022/12/27 03:52:42;;;;;;;;;;;;;;;3.97;72.54;101498.31;4170910;28;19921;-58
2022/12/27 03:54:45;;;;;;;;;;;;;;;3.95;72.69;101495.75;4170248;28;20008;-59
2022/12/27 03:56:47;;;;;;;;;;;;;;;3.95;72.49;101486.88;4170279;28;20007;-57
2022/12/27 03:58:49;;;;;;;;;;;;;;;3.93;72.79;101489.69;4170936;28;20024;-58
2022/12/27 04:00:51;;;;;;;;;;;;;;;3.96;72.80;101492.09;4170249;28;20036;-59
2022/12/27 04:02:53;;;;;;;;;;;;;;;3.99;72.85;101487.50;4170644;28;20023;-58
2022/12/27 04:04:56;;;;;;;;;;;;;;;4.00;72.71;101494.53;4168930;28;20020;-58
2022/12/27 04:06:58;;;;;;;;;;;;;;;3.97;72.59;101490.28;4170966;28;20035;-58
2022/12/27 04:34:44;;;;;;;;;;;;;;;3.84;73.07;101481.47;4171736;28;19982;-60
2022/12/27 04:36:47;;;;;;;;;;;;;;;3.83;72.89;101483.31;4173640;28;19948;-58
2022/12/27 04:38:49;;;;;;;;;;;;;;;3.84;73.20;101486.81;4173712;28;20384;-60
2022/12/27 04:54:59;;;;;;;;;;;;;;;3.81;72.99;101506.63;4172252;28;20013;-56
2022/12/27 04:57:02;;;;;;;;;;;;;;;3.77;72.94;101511.31;4172973;28;20020;-60
2022/12/27 05:03:43;;;;;;;;;;;;;;;3.73;72.99;101509.88;4172831;28;20032;-60
2022/12/27 05:05:45;;;;;;;;;;;;;;;3.71;72.88;101501.09;4171523;28;20031;-58
2022/12/27 05:14:47;;;;;;;;;;;;;;;3.65;72.94;101503.38;4172036;28;20451;-59
2022/12/27 05:16:49;;;;;;;;;;;;;;;3.65;73.11;101490.84;4172385;28;20023;-60
2022/12/27 05:18:51;;;;;;;;;;;;;;;3.62;73.07;101499.13;4172034;28;19936;-59
2022/12/27 05:20:53;;;;;;;;;;;;;;;3.56;73.18;101512.94;4171716;28;20043;-58
2022/12/27 05:25:33;;;;;;;;;;;;;;;3.49;73.20;101507.16;4171280;28;20038;-56
2022/12/27 05:27:35;;;;;;;;;;;;;;;3.47;73.68;101508.25;4172312;28;20024;-59
2022/12/27 05:29:37;;;;;;;;;;;;;;;3.45;73.54;101511.03;4172149;28;19996;-58
2022/12/27 05:31:39;;;;;;;;;;;;;;;3.41;73.66;101505.06;4172131;28;20028;-55
2022/12/27 05:33:41;;;;;;;;;;;;;;;3.37;73.39;101510.72;4172373;28;20019;-55
2022/12/27 05:35:43;;;;;;;;;;;;;;;3.33;73.77;101517.28;4171844;28;20008;-56
2022/12/27 05:37:45;;;;;;;;;;;;;;;3.30;73.84;101517.50;4172704;28;20430;-54
2022/12/27 05:39:49;;;;;;;;;;;;;;;3.28;73.96;101519.44;4172817;28;19921;-57
2022/12/27 05:41:52;;;;;;;;;;;;;;;3.28;73.86;101527.44;4172817;28;20027;-58
2022/12/27 05:43:54;;;;;;;;;;;;;;;3.28;73.83;101524.78;4172634;28;20020;-56
2022/12/27 05:45:55;;;;;;;;;;;;;;;3.28;73.95;101541.63;4171779;28;20015;-58
2022/12/27 05:47:58;;;;;;;;;;;;;;;3.27;73.65;101533.72;4173030;28;20028;-56
2022/12/27 05:50:00;;;;;;;;;;;;;;;3.24;73.62;101535.66;4171814;28;20023;-59
2022/12/27 05:52:02;;;;;;;;;;;;;;;3.24;73.64;101545.47;4172150;28;20019;-58
2022/12/27 05:54:04;;;;;;;;;;;;;;;3.22;73.52;101537.56;4179280;28;20043;-58
2022/12/27 05:56:07;;;;;;;;;;;;;;;3.21;73.62;101545.69;4171487;28;20015;-60
2022/12/27 05:58:09;;;;;;;;;;;;;;;3.21;73.91;101546.56;4171753;28;20004;-56
2022/12/27 06:00:11;;;;;;;;;;;;;;;3.19;73.58;101551.13;4171239;28;19921;-56
2022/12/27 06:02:16;;;;;;;;;;;;;;;3.16;73.74;101551.34;4172241;28;20015;-55
2022/12/27 06:04:19;;;;;;;;;;;;;;;3.13;73.88;101551.56;4171598;28;20439;-57
2022/12/27 06:06:21;;;;;;;;;;;;;;;3.11;74.09;101564.19;4171819;28;20423;-58
2022/12/27 06:08:23;;;;;;;;;;;;;;;3.09;74.17;101565.22;4171982;28;20019;-57
2022/12/27 06:10:25;;;;;;;;;;;;;;;3.09;74.22;101568.78;4172396;28;20493;-58
2022/12/27 06:12:29;;;;;;;;;;;;;;;3.10;74.08;101564.28;4171838;28;20019;-59
2022/12/27 06:14:30;;;;;;;;;;;;;;;3.10;74.41;101561.63;4171625;28;20031;-56
2022/12/27 06:16:32;;;;;;;;;;;;;;;3.10;74.18;101565.13;4171445;28;20446;-60
2022/12/27 06:18:35;;;;;;;;;;;;;;;3.10;74.40;101565.13;4171743;28;20029;-59
2022/12/27 06:20:37;;;;;;;;;;;;;;;3.11;74.04;101574.00;4171312;28;19920;-59
2022/12/27 06:22:39;;;;;;;;;;;;;;;3.05;74.08;101568.13;4172483;28;20431;-57
2022/12/27 06:24:41;;;;;;;;;;;;;;;3.04;74.38;101568.22;4170393;28;20447;-59
2022/12/27 06:26:43;;;;;;;;;;;;;;;3.01;74.27;101571.09;4172084;28;20016;-59
2022/12/27 06:28:48;;;;;;;;;;;;;;;3.03;74.35;101566.53;4172230;28;20466;-60
2022/12/27 06:30:50;;;;;;;;;;;;;;;3.06;74.42;101571.66;4171426;28;20012;-56
2022/12/27 06:32:52;;;;;;;;;;;;;;;3.10;74.47;101564.28;4171877;28;20023;-59
2022/12/27 06:34:54;;;;;;;;;;;;;;;3.11;74.25;101566.00;4171184;28;20021;-56
2022/12/27 06:36:56;;;;;;;;;;;;;;;3.14;74.16;101571.97;4171085;28;20019;-57
2022/12/27 06:38:58;;;;;;;;;;;;;;;3.17;74.17;101568.25;4171859;28;20007;-58
2022/12/27 06:41:00;;;;;;;;;;;;;;;3.18;73.92;101569.94;4170476;28;20390;-60
2022/12/27 06:43:02;;;;;;;;;;;;;;;3.19;73.74;101569.81;4170895;28;20028;-57
2022/12/27 06:45:08;;;;;;;;;;;;;;;3.19;73.82;101572.50;4170587;28;20007;-58
2022/12/27 06:47:10;;;;;;;;;;;;;;;3.19;73.90;101564.47;4171859;28;20019;-60
2022/12/27 06:49:12;;;;;;;;;;;;;;;3.19;73.65;101560.97;4171387;28;20011;-58
2022/12/27 06:51:15;;;;;;;;;;;;;;;3.18;73.64;101560.13;4169501;28;20327;-58
2022/12/27 06:53:20;;;;;;;;;;;;;;;3.20;74.04;101574.22;4171310;28;20020;-57
2022/12/27 06:55:23;;;;;;;;;;;;;;;3.22;73.84;101566.09;4170403;28;20007;-59
2022/12/27 06:57:25;;;;;;;;;;;;;;;3.22;73.49;101574.94;4170768;28;20015;-56
2022/12/27 06:59:27;;;;;;;;;;;;;;;3.23;73.59;101581.16;4170113;28;20039;-56
2022/12/27 07:01:30;;;;;;;;;;;;;;;3.24;73.55;101567.69;4171569;28;20354;-58
2022/12/27 07:03:32;;;;;;;;;;;;;;;3.26;73.70;101572.94;4171255;28;20041;-57
2022/12/27 07:05:34;;;;;;;;;;;;;;;3.27;73.78;101573.78;4169602;28;20022;-59
2022/12/27 07:07:36;;;;;;;;;;;;;;;3.28;73.61;101587.03;4170936;28;20371;-58
2022/12/27 07:09:38;;;;;;;;;;;;;;;3.27;73.53;101585.31;4170610;28;20008;-59
2022/12/27 07:11:40;;;;;;;;;;;;;;;3.28;73.61;101591.50;4171298;28;20367;-59
2022/12/27 07:13:44;;;;;;;;;;;;;;;3.27;73.54;101593.31;4170689;28;20020;-57
2022/12/27 07:15:46;;;;;;;;;;;;;;;3.28;73.49;101588.84;4170323;28;20011;-59
2022/12/27 07:17:49;;;;;;;;;;;;;;;3.28;73.47;101584.34;4170801;28;20015;-58
2022/12/27 07:19:51;;;;;;;;;;;;;;;3.29;73.30;101599.41;4171102;28;20442;-58
2022/12/27 07:21:53;;;;;;;;;;;;;;;3.26;73.15;101602.31;4171144;28;20393;-59
2022/12/27 07:23:55;;;;;;;;;;;;;;;3.24;73.34;101601.53;4170457;28;20008;-58
2022/12/27 07:26:00;;;;;;;;;;;;;;;3.26;73.73;101604.97;4169300;28;19995;-58
2022/12/27 07:28:02;;;;;;;;;;;;;;;3.26;73.48;101610.31;4170568;28;20391;-60
2022/12/27 07:30:05;;;;;;;;;;;;;;;3.25;73.53;101614.78;4169779;28;20031;-58
2022/12/27 07:32:07;;;;;;;;;;;;;;;3.25;73.61;101611.25;4170482;28;20016;-58
2022/12/27 07:34:10;;;;;;;;;;;;;;;3.25;73.62;101624.63;4170424;28;20009;-59
2022/12/27 07:36:13;;;;;;;;;;;;;;;3.25;73.58;101627.28;4169079;28;20004;-59
2022/12/27 07:38:15;;;;;;;;;;;;;;;3.24;73.62;101636.25;4170454;28;20019;-59
2022/12/27 07:40:17;;;;;;;;;;;;;;;3.23;73.57;101635.41;4171608;28;20031;-58
2022/12/27 07:42:19;;;;;;;;;;;;;;;3.24;73.91;101646.91;4169997;28;19928;-56
2022/12/27 07:44:23;;;;;;;;;;;;;;;3.27;73.84;101637.84;4170523;28;20015;-60
2022/12/27 07:46:25;;;;;;;;;;;;;;;3.29;73.32;101647.47;4170982;28;20686;-57
2022/12/27 07:48:28;;;;;;;;;;;;;;;3.26;73.08;101639.69;4171225;28;20009;-60
2022/12/27 07:50:31;;;;;;;;;;;;;;;3.21;73.54;101641.78;4169291;28;20000;-59
2022/12/27 07:52:33;;;;;;;;;;;;;;;3.23;73.41;101645.22;4168874;28;20052;-59
2022/12/27 07:54:35;;;;;;;;;;;;;;;3.22;73.50;101654.19;4168302;28;20015;-58
2022/12/27 07:56:37;;;;;;;;;;;;;;;3.22;73.42;101641.69;4169255;28;20012;-59
2022/12/27 07:58:39;;;;;;;;;;;;;;;3.24;73.71;101658.47;4170428;28;20020;-59
2022/12/27 08:00:41;;;;;;;;;;;;;;;3.23;73.34;101651.41;4171441;28;20036;-59
2022/12/27 08:02:45;;;;;;;;;;;;;;;3.23;73.49;101659.44;4166849;28;19928;-59
2022/12/27 08:04:47;;;;;;;;;;;;;;;3.21;73.72;101661.34;4170470;28;20356;-57
2022/12/27 08:06:51;;;;;;;;;;;;;;;3.19;73.79;101649.91;4172128;28;20624;-54
2022/12/27 08:08:52;;;;;;;;;;;;;;;3.20;73.65;101648.97;4170277;28;20020;-59
2022/12/27 08:10:54;;;;;;;;;;;;;;;3.20;73.64;101667.66;4171587;28;20360;-57
2022/12/27 08:12:56;;;;;;;;;;;;;;;3.22;73.83;101660.38;4173968;28;20003;-59
2022/12/27 08:14:58;;;;;;;;;;;;;;;3.23;73.81;101674.59;4172108;28;20673;-58
2022/12/27 08:17:03;;;;;;;;;;;;;;;3.21;73.76;101664.03;4173249;28;20470;-59
2022/12/27 08:19:05;;;;;;;;;;;;;;;3.23;73.72;101661.25;4175588;28;20019;-56
2022/12/27 08:21:07;;;;;;;;;;;;;;;3.22;73.78;101676.41;4173181;28;20452;-55
2022/12/27 08:23:10;;;;;;;;;;;;;;;3.24;73.79;101660.28;4174807;28;19928;-58
2022/12/27 08:25:12;;;;;;;;;;;;;;;3.25;73.70;101670.84;4173465;28;20426;-56
2022/12/27 08:27:19;;;;;;;;;;;;;;;3.27;73.74;101670.75;4174745;28;20023;-56
2022/12/27 08:29:21;;;;;;;;;;;;;;;3.27;73.74;101664.56;4173712;28;20505;-57
2022/12/27 08:31:23;;;;;;;;;;;;;;;3.28;73.92;101664.44;4175079;28;20131;-60
2022/12/27 08:33:25;;;;;;;;;;;;;;;3.33;73.84;101672.97;4179876;28;20457;-60
2022/12/27 08:35:27;;;;;;;;;;;;;;;3.34;73.88;101668.50;4173590;28;20320;-58
2022/12/27 08:37:29;;;;;;;;;;;;;;;3.35;73.97;101664.88;4175336;28;20016;-55
2022/12/27 08:39:32;;;;;;;;;;;;;;;3.39;74.11;101666.38;4172640;28;20031;-60
2022/12/27 08:41:34;;;;;;;;;;;;;;;3.40;73.92;101663.59;4172751;28;20027;-59
2022/12/27 08:43:36;;;;;;;;;;;;;;;3.43;73.82;101673.19;4174096;28;19928;-58
2022/12/27 08:45:39;;;;;;;;;;;;;;;3.47;73.94;101668.50;4171437;28;20016;-55
2022/12/27 08:47:41;;;;;;;;;;;;;;;3.51;73.94;101656.63;4172709;28;20043;-59
2022/12/27 08:49:43;;;;;;;;;;;;;;;3.53;73.68;101660.06;4170800;28;20019;-58
2022/12/27 08:51:45;;;;;;;;;;;;;;;3.54;73.87;101662.63;4172060;28;20031;-63
2022/12/27 08:53:48;;;;;;;;;;;;;;;3.56;73.89;101662.50;4170808;28;20058;-58
2022/12/27 08:55:51;;;;;;;;;;;;;;;3.58;73.67;101663.25;4171263;28;20024;-59
2022/12/27 08:57:56;;;;;;;;;;;;;;;3.60;73.87;101669.31;4169432;28;20637;-60
2022/12/27 08:59:58;;;;;;;;;;;;;;;3.61;73.55;101668.38;4171018;28;20004;-60
2022/12/27 09:02:00;;;;;;;;;;;;;;;3.63;73.55;101674.47;4171217;28;20019;-60
2022/12/27 09:04:03;;;;;;;;;;;;;;;3.65;73.71;101672.53;4172017;28;19940;-59
2022/12/27 09:06:09;;;;;;;;;;;;;;;3.66;73.42;101687.59;4171183;28;20004;-58
2022/12/27 09:08:11;;;;;;;;;;;;;;;3.66;73.74;101681.41;4172119;28;20015;-57
2022/12/27 09:10:13;;;;;;;;;;;;;;;3.67;73.68;101692.00;4171178;28;20007;-59
2022/12/27 09:12:16;;;;;;;;;;;;;;;3.68;73.65;101688.34;4171677;28;20028;-57
2022/12/27 09:14:19;;;;;;;;;;;;;;;3.71;73.70;101693.47;4170472;28;20003;-61
2022/12/27 09:16:26;;;;;;;;;;;;;;;3.75;73.54;101691.44;4171731;28;20039;-57
2022/12/27 09:18:28;;;;;;;;;;;;;;;3.76;73.42;101691.34;4170453;28;20012;-58
2022/12/27 09:20:30;;;;;;;;;;;;;;;3.76;73.39;101691.34;4170716;28;20008;-60
2022/12/27 09:22:32;;;;;;;;;;;;;;;3.77;73.58;101687.69;4169952;28;20016;-60
2022/12/27 09:24:34;;;;;;;;;;;;;;;3.82;73.75;101698.03;4170202;28;19925;-60
2022/12/27 09:26:36;;;;;;;;;;;;;;;3.87;73.64;101689.69;4171277;28;20023;-59
2022/12/27 09:28:39;;;;;;;;;;;;;;;3.92;73.60;101695.59;4171483;28;20007;-61
2022/12/27 09:30:41;;;;;;;;;;;;;;;3.97;73.86;101698.78;4169871;28;20020;-59
2022/12/27 09:32:43;;;;;;;;;;;;;;;4.00;73.55;101698.56;4170106;28;20011;-61
2022/12/27 09:34:45;;;;;;;;;;;;;;;4.03;73.64;101701.00;4169050;28;20012;-60
2022/12/27 09:36:47;;;;;;;;;;;;;;;4.08;73.67;101695.34;4169103;28;20016;-60
2022/12/27 09:38:50;;;;;;;;;;;;;;;4.14;73.91;101698.41;4169777;28;20458;-59
2022/12/27 09:40:52;;;;;;;;;;;;;;;4.24;73.99;101705.75;4168727;28;20019;-60
2022/12/27 09:42:55;;;;;;;;;;;;;;;4.31;73.39;101694.50;4168747;28;20039;-62
2022/12/27 09:45:00;;;;;;;;;;;;;;;4.38;73.60;101688.69;4168698;28;19964;-60
2022/12/27 09:47:04;;;;;;;;;;;;;;;4.45;73.23;101692.63;4186108;28;20007;-59
2022/12/27 09:49:06;;;;;;;;;;;;;;;4.47;73.01;101694.22;4170805;28;20019;-61
2022/12/27 09:51:10;;;;;;;;;;;;;;;4.50;72.82;101698.50;4168851;28;20596;-60
2022/12/27 09:53:16;;;;;;;;;;;;;;;4.53;73.02;101684.91;4169523;28;20019;-60
2022/12/27 09:55:19;;;;;;;;;;;;;;;4.58;72.71;101682.72;4168849;28;20031;-61
2022/12/27 09:57:22;;;;;;;;;;;;;;;4.64;72.72;101686.75;4169427;28;20528;-59
2022/12/27 09:59:25;;;;;;;;;;;;;;;4.67;72.51;101691.88;4169119;28;20019;-59
2022/12/27 10:01:29;;;;;;;;;;;;;;;4.71;72.72;101689.84;4169232;28;20019;-61
2022/12/27 10:03:31;;;;;;;;;;;;;;;4.78;73.12;101685.72;4169709;28;20043;-59
2022/12/27 10:05:33;;;;;;;;;;;;;;;4.86;73.37;101694.88;4168714;28;20691;-60
2022/12/27 10:07:38;;;;;;;;;;;;;;;4.95;73.26;101687.94;4171262;28;20007;-60
2022/12/27 10:09:43;;;;;;;;;;;;;;;5.03;73.47;101684.69;4168973;28;20007;-60
2022/12/27 10:11:47;;;;;;;;;;;;;;;5.09;72.96;101686.91;4170620;28;20023;-60
2022/12/27 10:13:49;;;;;;;;;;;;;;;5.15;73.07;101690.94;4169670;28;20015;-59
2022/12/27 10:15:55;;;;;;;;;;;;;;;5.19;72.75;101677.19;4167398;28;20029;-59
2022/12/27 10:18:01;;;;;;;;;;;;;;;5.24;72.95;101676.84;4169913;28;20052;-59
2022/12/27 10:20:06;;;;;;;;;;;;;;;5.29;72.80;101682.69;4167900;28;20051;-61
2022/12/27 10:22:13;;;;;;;;;;;;;;;5.32;73.02;101695.84;4169573;28;20015;-59
2022/12/27 10:24:16;;;;;;;;;;;;;;;5.37;72.91;101685.59;4168227;28;20063;-60
2022/12/27 10:26:19;;;;;;;;;;;;;;;5.43;73.07;101683.44;4168903;28;19925;-60
2022/12/27 10:28:24;;;;;;;;;;;;;;;5.49;73.11;101691.84;4167580;28;20007;-59
2022/12/27 10:30:26;;;;;;;;;;;;;;;5.57;72.81;101700.13;4167532;28;20024;-60
2022/12/27 10:32:28;;;;;;;;;;;;;;;5.64;72.40;101691.59;4167536;28;20019;-58
2022/12/27 10:34:31;;;;;;;;;;;;;;;5.67;72.53;101692.19;4167345;28;20367;-60
2022/12/27 10:36:33;;;;;;;;;;;;;;;5.73;72.50;101705.13;4168550;28;20589;-61
2022/12/27 10:38:35;;;;;;;;;;;;;;;5.80;72.50;101708.19;4170610;28;20118;-61
2022/12/27 10:40:38;;;;;;;;;;;;;;;5.83;72.77;101712.44;4168351;28;20475;-61
2022/12/27 10:42:41;;;;;;;;;;;;;;;5.89;72.24;101728.03;4170860;28;20015;-60
2022/12/27 10:44:43;;;;;;;;;;;;;;;5.94;71.44;101712.41;4168004;28;20461;-60
2022/12/27 10:46:48;;;;;;;;;;;;;;;5.97;71.33;101716.72;4170547;28;19924;-60
2022/12/27 10:48:54;;;;;;;;;;;;;;;5.99;71.49;101718.31;4170283;28;20359;-59
2022/12/27 10:50:58;;;;;;;;;;;;;;;6.07;71.51;101731.97;4167538;28;20478;-60
2022/12/27 10:53:00;;;;;;;;;;;;;;;6.10;71.15;101733.56;4169149;28;20012;-59
2022/12/27 10:55:02;;;;;;;;;;;;;;;6.11;71.09;101736.13;4167164;28;20004;-61
2022/12/27 10:57:17;;;;;;;;;;;;;;;6.13;71.43;101739.53;4168720;28;20019;-57
2022/12/27 10:59:19;;;;;;;;;;;;;;;6.18;71.13;101739.16;4167785;28;20023;-54
2022/12/27 11:01:23;;;;;;;;;;;;;;;6.17;71.24;101739.28;4168389;28;20020;-55
2022/12/27 11:03:27;;;;;;;;;;;;;;;6.16;71.34;101750.97;4168866;28;20011;-55
2022/12/27 11:05:30;;;;;;;;;;;;;;;6.14;70.94;101732.31;4167760;28;20020;-55
2022/12/27 11:07:34;;;;;;;;;;;;;;;6.09;71.10;101735.38;4168264;28;20035;-60
2022/12/27 11:09:37;;;;;;;;;;;;;;;6.08;71.05;101732.81;4167319;28;20020;-60
2022/12/27 11:11:40;;;;;;;;;;;;;;;6.06;71.39;101734.78;4182954;28;20445;-58
2022/12/27 11:13:49;;;;;;;;;;;;;;;6.07;71.95;101749.91;4159600;28;19924;-58
2022/12/27 11:15:56;;;;;;;;;;;;;;;6.06;71.79;101735.63;4163404;28;19929;-54
2022/12/27 11:17:59;;;;;;;;;;;;;;;6.07;71.20;101742.69;4168758;28;20012;-59
2022/12/27 11:20:04;;;;;;;;;;;;;;;6.08;71.24;101760.50;4166266;28;20359;-59
2022/12/27 11:22:08;;;;;;;;;;;;;;;6.07;70.63;101771.34;4168595;28;19921;-60
2022/12/27 11:24:13;;;;;;;;;;;;;;;6.04;70.82;101747.47;4168238;28;20023;-60
2022/12/27 11:26:20;;;;;;;;;;;;;;;6.00;71.62;101752.19;4163892;28;19932;-60
2022/12/27 11:28:24;;;;;;;;;;;;;;;6.01;71.04;101753.06;4159685;28;20565;-60
2022/12/27 11:30:27;;;;;;;;;;;;;;;6.01;71.01;101750.38;4168209;28;20011;-61
2022/12/27 11:32:29;;;;;;;;;;;;;;;5.99;70.92;101749.63;4168090;28;20020;-58
2022/12/27 11:34:31;;;;;;;;;;;;;;;5.97;71.11;101741.72;4169084;28;20020;-58
2022/12/27 11:36:34;;;;;;;;;;;;;;;5.95;70.56;101740.94;4169769;28;20012;-59
2022/12/27 11:38:37;;;;;;;;;;;;;;;5.94;70.87;101750.84;4170306;28;20020;-59
2022/12/27 11:40:40;;;;;;;;;;;;;;;5.91;70.58;101759.13;4168739;28;20032;-54
2022/12/27 11:42:43;;;;;;;;;;;;;;;5.90;71.41;101740.47;4169087;28;20020;-60
2022/12/27 11:44:46;;;;;;;;;;;;;;;5.89;71.50;101749.47;4186980;28;19995;-55
2022/12/27 11:46:50;;;;;;;;;;;;;;;5.89;71.30;101745.00;4168995;28;20003;-56
2022/12/27 11:48:53;;;;;;;;;;;;;;;5.89;71.61;101747.69;4171472;28;19932;-59
2022/12/27 11:51:13;;;;;;;;;;;;;;;5.88;71.30;101751.31;4169638;28;20617;-56
2022/12/27 11:53:19;;;;;;;;;;;;;;;5.84;71.14;101767.78;4169794;28;20039;-59
2022/12/27 11:55:27;;;;;;;;;;;;;;;5.85;71.37;101748.03;4168636;28;20016;-59
2022/12/27 11:57:33;;;;;;;;;;;;;;;5.86;71.41;101755.97;4169225;28;20019;-57
2022/12/27 11:59:47;;;;;;;;;;;;;;;5.86;70.96;101742.56;4167751;28;20023;-55
2022/12/27 12:01:58;;;;;;;;;;;;;;;5.85;71.00;101738.16;4169014;28;20023;-57
2022/12/27 12:04:08;;;;;;;;;;;;;;;5.85;71.25;101740.00;4170615;28;20008;-61
2022/12/27 12:06:12;;;;;;;;;;;;;;;5.84;71.22;101744.47;4168866;28;20769;-57
2022/12/27 12:08:19;;;;;;;;;;;;;;;5.85;70.92;101745.34;4169960;28;20016;-60
2022/12/27 12:10:24;;;;;;;;;;;;;;;5.85;70.80;101732.78;4167563;28;20291;-57
2022/12/27 12:12:36;;;;;;;;;;;;;;;5.86;71.38;101755.97;4168573;28;20012;-59
2022/12/27 12:14:45;;;;;;;;;;;;;;;5.85;70.62;101761.44;4168937;28;20434;-60
2022/12/27 12:16:55;;;;;;;;;;;;;;;5.84;70.98;101763.25;4169117;28;20011;-58
2022/12/27 12:19:12;;;;;;;;;;;;;;;5.84;71.05;101763.25;4170221;28;20015;-60
2022/12/27 12:21:28;;;;;;;;;;;;;;;5.85;71.20;101775.69;4164866;28;20380;-57